Eagle, Alaska
Current Conditions -  °F | °C
As of 2:53 AM on Sunday 21 Dec 2014 (Local Time) from PAEG Reporting Station
Overcast Overcast  
Wind Chill: -19°   Ceiling: 4900
Heat Index: -19°   Visibility: 10mi
Dew Point: -22°   Wind: 0mph
Humidity: 79%   Direction: NA
Pressure: 29.29"   Gusts: NA
Location:  64.78°N, 141.21°W
Report Text: PAEG 211153Z AUTO 00000KT 10SM OVC049 M19/M22 A2929 RMK AO2 SLP943 I6000 T11891217 11189 21261 50006 TSNO
Loading
Personal Weather Stations






























Interactive Weather Map New forecast layout! Learn more

10-Day Weather Forecast

Advertisements
Track Severe Weather on mobile